Flight Track Log - Related Links

Times and Time Zones

All times are in EDT time to prevent confusion due to time zone crossing. See the SWA1245 flight status page for this flight to view local times or setup timezone preferences in your user account.

Time Position Orientation Groundspeed Altitude Reporting Facility
EDT Latitude Longitude Course Direction KTS MPH feet Rate Location/Type
Wed 11:43:43 AM 33.9358 -118.5311 262° West 214 246 4,000  Level Los Angeles Center
Wed 11:44:45 AM 33.9025 -118.5850 233° Southwest 245 282 6,300 2,129 Climbing Los Angeles Center
Wed 11:45:47 AM 33.8892 -118.5111 102° East 265 305 8,400 1,984 Climbing Los Angeles Center
Wed 11:46:49 AM 33.9297 -118.4378 56° Northeast 276 318 10,400 1,742 Climbing Los Angeles Center
Wed 11:47:51 AM 33.9836 -118.3469 54° Northeast 330 380 12,000 1,742 Climbing Los Angeles Center
Wed 11:48:00 AM 34.3100 -117.7467 59° Northeast  Level FlightAware Approximate
Wed 11:48:53 AM 34.0397 -118.2461 56° Northeast 356 410 14,000  Level Los Angeles Center
Wed 11:49:55 AM 34.0981 -118.1408 56° Northeast 374 430 16,300 2,112 Climbing Los Angeles Center
Wed 11:50:58 AM 34.1728 -118.0106 55° Northeast 391 450 18,400 1,872 Climbing Los Angeles Center
Wed 11:52:00 AM 34.2356 -117.8992 56° Northeast 399 459 20,200 1,645 Climbing Los Angeles Center
Wed 11:53:02 AM 34.2992 -117.7850 56° Northeast 408 470 21,800 1,500 Climbing Los Angeles Center
Wed 11:54:04 AM 34.3642 -117.6672 56° Northeast 417 480 23,300 1,403 Climbing Los Angeles Center
Wed 11:55:06 AM 34.4331 -117.5428 56° Northeast 430 495 24,700 1,306 Climbing Los Angeles Center
Wed 11:56:08 AM 34.5092 -117.4281 51° Northeast 438 504 26,000 1,161 Climbing Los Angeles Center
Wed 11:57:10 AM 34.5911 -117.3147 49° Northeast 447 514 27,100 1,065 Climbing Los Angeles Center
Wed 11:58:12 AM 34.6903 -117.1747 49° Northeast 459 528 28,200 1,113 Climbing Los Angeles Center
Wed 11:59:14 AM 34.7750 -117.0542 49° Northeast 471 542 29,400 1,161 Climbing Los Angeles Center
Wed 12:00:16 PM 34.8600 -116.9319 50° Northeast 476 548 30,600 1,104 Climbing Los Angeles Center
Wed 12:01:19 PM 34.9444 -116.8122 49° Northeast 472 543 31,700 912 Climbing Los Angeles Center
Wed 12:02:21 PM 35.0289 -116.6917 49° Northeast 471 542 32,500 1,016 Climbing Los Angeles Center
Wed 12:03:23 PM 35.1308 -116.5453 50° Northeast 473 544 33,800 1,210 Climbing Los Angeles Center
Wed 12:04:25 PM 35.2144 -116.4261 49° Northeast 467 537 35,000 581 Climbing Los Angeles Center
Wed 12:05:27 PM 35.2967 -116.3081 50° Northeast 460 529 35,000  Level Los Angeles Center
Wed 12:06:29 PM 35.3800 -116.1875 50° Northeast 463 533 35,000  Level Los Angeles Center
Wed 12:07:31 PM 35.4622 -116.0664 50° Northeast 464 534 35,000  Level Los Angeles Center
Wed 12:08:33 PM 35.5639 -115.9214 49° Northeast 466 536 35,000  Level Los Angeles Center
Wed 12:09:35 PM 35.6431 -115.8064 50° Northeast 466 536 35,000  Level Los Angeles Center
Wed 12:10:37 PM 35.7264 -115.6842 50° Northeast 468 539 35,000  Level Los Angeles Center
Wed 12:11:39 PM 35.8092 -115.5600 51° Northeast 470 541 35,000  Level Los Angeles Center
Wed 12:12:42 PM 35.8650 -115.3794 69° East 481 554 35,000  Level Los Angeles Center
Wed 12:13:44 PM 35.8983 -115.2206 75° East 482 555 35,000  Level Los Angeles Center
Wed 12:14:46 PM 35.9297 -115.0631 76° East 480 552 35,000  Level Los Angeles Center
Wed 12:15:48 PM 35.9622 -114.9019 76° East 485 558 35,000  Level Los Angeles Center
Wed 12:16:50 PM 35.9964 -114.7419 75° East 485 558 35,000  Level Los Angeles Center
Wed 12:17:52 PM 36.0350 -114.5486 76° East 486 559 35,000  Level Los Angeles Center
Wed 12:18:54 PM 36.0664 -114.3881 76° East 483 556 35,000  Level Los Angeles Center
Wed 12:19:56 PM 36.0983 -114.2272 76° East 483 556 35,000  Level Los Angeles Center
Wed 12:20:58 PM 36.1306 -114.0669 76° East 482 555 35,000  Level Los Angeles Center
Wed 12:22:01 PM 36.1625 -113.9061 76° East 482 555 35,000  Level Los Angeles Center
Wed 12:23:03 PM 36.2000 -113.7147 76° East 479 551 35,000  Level Los Angeles Center
Wed 12:24:05 PM 36.2300 -113.5539 77° East 480 552 35,000  Level Los Angeles Center
Wed 12:25:07 PM 36.2611 -113.3925 77° East 481 554 35,000  Level Los Angeles Center
Wed 12:26:09 PM 36.2908 -113.2381 77° East 479 551 35,000  Level Los Angeles Center
Wed 12:27:11 PM 36.3200 -113.0786 77° East 477 549 35,000  Level Los Angeles Center
Wed 12:28:13 PM 36.3575 -112.8850 76° East 481 554 35,000  Level Los Angeles Center
Wed 12:29:15 PM 36.3869 -112.7244 77° East 480 552 35,000  Level Los Angeles Center
Wed 12:30:17 PM 36.4161 -112.5636 77° East 481 554 35,000  Level Los Angeles Center
Wed 12:31:19 PM 36.4447 -112.4028 77° East 480 552 35,000  Level Los Angeles Center
Wed 12:32:22 PM 36.4747 -112.2439 77° East 477 549 35,000  Level Los Angeles Center
Wed 12:33:24 PM 36.5089 -112.0508 78° East 478 550 35,000  Level Los Angeles Center
Wed 12:34:26 PM 36.5378 -111.8925 77° East 475 547 35,000  Level Los Angeles Center
Wed 12:35:28 PM 36.5656 -111.7331 78° East 474 545 35,000  Level Los Angeles Center
Wed 12:36:30 PM 36.5928 -111.5742 78° East 472 543 35,000  Level Los Angeles Center
Wed 12:37:23 PM 36.6206 -111.4161 78° East 471 542 35,000  Level Denver Center
Wed 12:38:25 PM 36.6467 -111.2575 78° East 470 541 35,000  Level Denver Center
Wed 12:39:27 PM 36.6744 -111.0992 78° East 470 541 35,000  Level Denver Center
Wed 12:40:29 PM 36.7017 -110.9406 78° East 470 541 35,000  Level Denver Center
Wed 12:41:31 PM 36.7264 -110.7836 79° East 467 537 35,000  Level Denver Center
Wed 12:42:33 PM 36.7533 -110.6247 78° East 469 540 35,000  Level Denver Center
Wed 12:43:35 PM 36.7842 -110.4358 78° East 465 535 35,000  Level Denver Center
Wed 12:44:37 PM 36.8103 -110.2781 78° East 466 536 35,000  Level Denver Center
Wed 12:45:39 PM 36.8344 -110.1264 79° East 465 535 35,000  Level Denver Center
Wed 12:46:41 PM 36.8631 -109.9489 79° East 465 535 35,000  Level Denver Center
Wed 12:47:43 PM 36.8872 -109.7972 79° East 464 534 35,000  Level Denver Center
Wed 12:48:45 PM 36.9158 -109.6194 79° East 466 536 35,000  Level Denver Center
Wed 12:49:47 PM 36.9389 -109.4664 79° East 467 537 35,000  Level Denver Center
Wed 12:50:49 PM 36.9656 -109.2892 79° East 464 534 35,000  Level Denver Center
Wed 12:51:51 PM 36.9892 -109.1364 79° East 465 535 35,000  Level Denver Center
Wed 12:52:53 PM 37.0167 -108.9564 79° East 468 539 35,000  Level Denver Center
Wed 12:53:55 PM 37.0394 -108.8022 79° East 470 541 35,000  Level Denver Center
Wed 12:54:57 PM 37.0631 -108.6483 79° East 469 540 35,000  Level Denver Center
Wed 12:55:59 PM 37.0886 -108.4675 80° East 471 542 35,000  Level Denver Center
Wed 12:57:01 PM 37.1114 -108.3136 79° East 469 540 35,000  Level Denver Center
Wed 12:58:03 PM 37.1372 -108.1350 80° East 468 539 35,000  Level Denver Center
Wed 12:59:05 PM 37.1594 -107.9814 80° East 467 537 35,000  Level Denver Center
Wed 01:00:08 PM 37.1847 -107.8025 80° East 464 534 35,000  Level Denver Center
Wed 01:01:10 PM 37.2056 -107.6475 80° East 470 541 35,000  Level Denver Center
Wed 01:02:12 PM 37.2306 -107.4678 80° East 469 540 35,000  Level Denver Center
Wed 01:03:14 PM 37.2514 -107.3144 80° East 467 537 35,000  Level Denver Center
Wed 01:04:16 PM 37.2722 -107.1608 80° East 466 536 35,000  Level Denver Center
Wed 01:05:18 PM 37.2958 -106.9822 81° East 464 534 35,000  Level Denver Center
Wed 01:06:20 PM 37.3158 -106.8286 81° East 466 536 35,000  Level Denver Center
Wed 01:07:22 PM 37.3406 -106.6497 80° East 464 534 35,000  Level Denver Center
Wed 01:08:24 PM 37.3600 -106.4958 81° East 466 536 35,000  Level Denver Center
Wed 01:09:26 PM 37.3836 -106.3161 81° East 466 536 35,000  Level Denver Center
Wed 01:10:28 PM 37.4019 -106.1617 81° East 467 537 35,000  Level Denver Center
Wed 01:11:30 PM 37.4239 -105.9814 81° East 468 539 35,000  Level Denver Center
Wed 01:12:32 PM 37.4425 -105.8275 81° East 465 535 35,000  Level Denver Center
Wed 01:13:34 PM 37.4628 -105.6467 82° East 467 537 35,000  Level Denver Center
Wed 01:14:36 PM 37.4822 -105.4939 81° East 463 533 35,000  Level Denver Center
Wed 01:15:38 PM 37.5075 -105.3183 80° East 459 528 35,000  Level Denver Center
Wed 01:16:40 PM 37.5219 -105.1597 83° East 467 537 35,000  Level Denver Center
Wed 01:17:42 PM 37.5408 -105.0061 81° East 467 537 35,000  Level Denver Center
Wed 01:18:44 PM 37.5611 -104.8269 82° East 462 532 35,000  Level Denver Center
Wed 01:19:46 PM 37.5792 -104.6728 82° East 464 534 35,000  Level Denver Center
Wed 01:20:48 PM 37.5989 -104.4931 82° East 463 533 35,000  Level Denver Center
Wed 01:21:50 PM 37.6156 -104.3381 82° East 465 535 35,000  Level Denver Center
Wed 01:22:52 PM 37.6344 -104.1569 82° East 462 532 35,000  Level Denver Center
Wed 01:23:54 PM 37.6517 -103.9994 82° East 461 531 35,000  Level Denver Center
Wed 01:24:56 PM 37.6689 -103.8417 82° East 465 535 35,000  Level Denver Center
Wed 01:25:58 PM 37.6878 -103.6608 82° East 464 534 35,000  Level Denver Center
Wed 01:27:00 PM 37.7031 -103.5064 83° East 462 532 35,000  Level Denver Center
Wed 01:28:02 PM 37.7206 -103.3253 83° East 465 535 35,000  Level Denver Center
Wed 01:29:04 PM 37.7364 -103.1686 83° East 468 539 35,000  Level Denver Center
Wed 01:30:06 PM 37.7506 -103.0117 83° East 470 541 35,000  Level Denver Center
Wed 01:31:08 PM 37.7683 -102.8272 83° East 473 544 35,000  Level Denver Center
Wed 01:32:10 PM 37.7839 -102.6700 83° East 472 543 35,000  Level Denver Center
Wed 01:33:12 PM 37.8031 -102.4853 82° East 473 544 35,000  Level Denver Center
Wed 01:34:14 PM 37.8183 -102.3089 84° East 473 544 35,000  Level Denver Center
Wed 01:35:16 PM 37.8333 -102.1511 83° East 472 543 35,000  Level Denver Center
Wed 01:36:17 PM 37.8500 -101.9656 83° East 473 544 35,000  Level Denver Center
Wed 01:37:19 PM 37.8631 -101.8072 84° East 473 544 35,000  Level Denver Center
Wed 01:38:21 PM 37.8781 -101.6486 83° East 474 545 35,000  Level Denver Center
Wed 01:39:23 PM 37.8936 -101.4614 84° East 478 550 35,000  Level Denver Center
Wed 01:40:25 PM 37.9069 -101.3017 84° East 477 549 35,000  Level Denver Center
Wed 01:41:27 PM 37.9228 -101.1128 84° East 480 552 35,000  Level Denver Center
Wed 01:42:29 PM 37.9356 -100.9506 84° East 480 552 35,000  Level Denver Center
Wed 01:43:35 PM 37.9511 -100.7594 84° East 483 556 35,000  Level Kansas City Center
Wed 01:44:37 PM 37.9636 -100.5975 84° East 481 554 35,000  Level Kansas City Center
Wed 01:45:39 PM 37.9781 -100.4103 84° East 478 550 35,000  Level Kansas City Center
Wed 01:46:41 PM 37.9897 -100.2492 85° East 478 550 35,000  Level Kansas City Center
Wed 01:47:43 PM 38.0031 -100.0625 85° East 476 548 35,000  Level Kansas City Center
Wed 01:48:45 PM 38.0144 -99.9033 85° East 475 547 35,000  Level Kansas City Center
Wed 01:49:47 PM 38.0272 -99.7178 85° East 474 545 35,000  Level Kansas City Center
Wed 01:50:49 PM 38.0381 -99.5592 85° East 472 543 35,000  Level Kansas City Center
Wed 01:51:51 PM 38.0483 -99.4058 85° East 470 541 35,000  Level Kansas City Center
Wed 01:52:53 PM 38.0594 -99.2419 85° East 468 539 35,000  Level Kansas City Center
Wed 01:53:56 PM 38.0717 -99.0447 85° East 466 536 35,000  Level Kansas City Center
Wed 01:54:58 PM 38.0819 -98.8819 85° East 464 534 35,000  Level Kansas City Center
Wed 01:56:00 PM 38.0925 -98.7197 85° East 461 531 35,000  Level Kansas City Center
Wed 01:57:02 PM 38.1025 -98.5561 86° East 462 532 35,000  Level Kansas City Center
Wed 01:58:04 PM 38.1125 -98.3919 86° East 466 536 35,000  Level Kansas City Center
Wed 01:59:06 PM 38.1225 -98.2294 85° East 460 529 35,000  Level Kansas City Center
Wed 02:00:08 PM 38.1306 -98.0333 87° East 462 532 35,000  Level Kansas City Center
Wed 02:01:10 PM 38.1400 -97.8706 86° East 462 532 35,000  Level Kansas City Center
Wed 02:02:12 PM 38.1483 -97.7100 86° East 462 532 35,000  Level Kansas City Center
Wed 02:03:14 PM 38.1567 -97.5494 86° East 458 527 35,000  Level Kansas City Center
Wed 02:04:16 PM 38.1664 -97.3761 86° East 458 527 35,000  Level Kansas City Center
Wed 02:05:18 PM 38.1744 -97.2147 86° East 458 527 35,000  Level Kansas City Center
Wed 02:06:20 PM 38.1814 -97.0533 87° East 457 526 35,000  Level Kansas City Center
Wed 02:07:22 PM 38.1886 -96.8933 87° East 454 522 35,000  Level Kansas City Center
Wed 02:08:24 PM 38.1961 -96.7347 87° East 451 519 35,000  Level Kansas City Center
Wed 02:09:26 PM 38.2044 -96.5433 87° East 452 520 35,000  Level Kansas City Center
Wed 02:10:28 PM 38.2103 -96.4008 87° East 447 514 35,000  Level Kansas City Center
Wed 02:11:30 PM 38.2164 -96.2233 87° East 450 518 35,000  Level Kansas City Center
Wed 02:12:32 PM 38.2222 -96.0703 87° East 454 522 35,000  Level Kansas City Center
Wed 02:13:34 PM 38.2292 -95.8925 87° East 452 520 35,000  Level Kansas City Center
Wed 02:14:36 PM 38.2347 -95.7383 87° East 456 525 35,000  Level Kansas City Center
Wed 02:15:38 PM 38.2403 -95.5594 88° East 456 525 35,000  Level Kansas City Center
Wed 02:16:40 PM 38.2461 -95.4047 87° East 459 528 35,000  Level Kansas City Center
Wed 02:17:42 PM 38.2517 -95.2253 88° East 456 525 35,000  Level Kansas City Center
Wed 02:18:44 PM 38.2558 -95.0717 88° East 456 525 35,000  Level Kansas City Center
Wed 02:19:46 PM 38.2611 -94.8908 88° East 458 527 35,000  Level Kansas City Center
Wed 02:20:48 PM 38.2653 -94.7336 88° East 461 531 35,000  Level Kansas City Center
Wed 02:21:50 PM 38.2708 -94.5522 88° East 461 531 35,000  Level Kansas City Center
Wed 02:22:52 PM 38.2850 -94.3986 83° East 461 531 35,000  Level Kansas City Center
Wed 02:23:54 PM 38.3164 -94.2208 77° East 461 531 35,000  Level Kansas City Center
Wed 02:24:56 PM 38.3414 -94.0672 78° East 464 534 35,000  Level Kansas City Center
Wed 02:25:58 PM 38.3661 -93.9064 79° East 464 534 35,000 -242 Level Kansas City Center
Wed 02:27:00 PM 38.3917 -93.7458 78° East 462 532 34,500 -774 Descending Kansas City Center
Wed 02:28:02 PM 38.4228 -93.5472 79° East 471 542 33,400 -968 Descending Kansas City Center
Wed 02:29:04 PM 38.4497 -93.3794 78° East 477 549 32,500 -919 Descending Kansas City Center
Wed 02:30:06 PM 38.4769 -93.2097 78° East 483 556 31,500 -919 Descending Kansas City Center
Wed 02:31:08 PM 38.5031 -93.0389 79° East 486 559 30,600 -919 Descending Kansas City Center
Wed 02:32:10 PM 38.5289 -92.8678 79° East 487 560 29,600 -774 Descending Kansas City Center
Wed 02:33:12 PM 38.5547 -92.6961 79° East 488 562 29,000 -290 Descending Kansas City Center
Wed 02:34:14 PM 38.5786 -92.5239 80° East 488 562 29,000  Level Kansas City Center
Wed 02:35:15 PM 38.6036 -92.3547 79° East 484 557 29,000  Level Kansas City Center
Wed 02:36:17 PM 38.6267 -92.1919 80° East 468 539 29,000  Level Kansas City Center
Wed 02:37:19 PM 38.6542 -92.0025 79° East 452 520 29,000 -823 Level Kansas City Center
Wed 02:38:21 PM 38.6761 -91.8458 80° East 446 513 27,300 -1,984 Descending Kansas City Center
Wed 02:39:23 PM 38.6933 -91.6856 82° East 451 519 24,900 -2,323 Descending Kansas City Center
Wed 02:40:25 PM 38.6908 -91.5269 91° East 445 512 22,500 -2,371 Descending Kansas City Center
Wed 02:41:27 PM 38.6925 -91.3661 89° East 429 494 20,000 -2,274 Descending Kansas City Center
Wed 02:42:29 PM 38.6928 -91.2228 90° East 412 474 17,800 -2,129 Descending Kansas City Center
Wed 02:43:31 PM 38.6958 -91.0850 88° East 394 453 15,600 -1,984 Descending Kansas City Center
Wed 02:44:33 PM 38.7003 -90.9533 87° East 377 434 13,700 -1,984 Descending Kansas City Center
Wed 02:45:35 PM 38.7031 -90.8250 88° East 365 420 11,500 -1,694 Descending Kansas City Center
Wed 02:46:37 PM 38.7075 -90.7028 87° East 350 403 10,200 -1,258 Descending Kansas City Center
Wed 02:47:39 PM 38.7119 -90.5750 87° East 304 350 8,900 -1,210 Descending Kansas City Center
Wed 02:48:41 PM 38.6922 -90.4822 105° East 282 325 7,700 -871 Descending Kansas City Center
Wed 02:49:43 PM 38.6553 -90.4075 122° Southeast 267 307 7,100 -774 Descending Kansas City Center
Wed 02:50:45 PM 38.6217 -90.3392 122° Southeast 244 281 6,100 -1,161 Descending Kansas City Center
Wed 02:51:47 PM 38.5956 -90.2514 111° Southeast 234 269 4,700 -774 Descending Kansas City Center
Wed 02:52:49 PM 38.6428 -90.1969 42° Northeast 240 276 4,500 -532 Descending Kansas City Center
Wed 02:53:51 PM 38.6839 -90.2297 328° Northwest 219 252 3,600 -1,258 Descending Kansas City Center
Wed 02:54:53 PM 38.7078 -90.2772 303° West 183 211 1,900 -1,258 Descending Kansas City Center
Wed 02:55:55 PM 38.7311 -90.3236 303° West 166 191 1,000 -629 Descending Kansas City Center
Wed 02:56:57 PM 38.7581 -90.3775 303° West 162 186 600 -387 Descending Kansas City Center

Login

Don't have an account? Register now (free) for customized features, flight alerts, and more!